Terminal Aerodrome Forecast
Issued by NWS

Home | Current Version | Previous Version | Text Only | Print | Product List | Glossary On
Versions: 1 2 3 4 5 6 7 8 9 10 11 12
997
FTUS43 KICT 102338
TAFRSL
TAF
KRSL 102338Z 1100/1124 26009KT P6SM FEW250
     FM111100 28015KT P6SM SCT250
     FM111700 33024G33KT P6SM SCT250=

USA.gov is the U.S. government's official web portal to all federal, state and local government web resources and services.